Check out our new PWSWeather beta!
PWSweather.com
Personal Weather Stations
Station Observations

PoschiavoCH

Lat: 46.31962499999999, Lon: 10.066551000000004

Elevation: 3517

Station Type: WH 1080

http://www.meteoposchiavo.com

High Low Average
Temperature 53.6°F12.0°C 30.0°F-1.1°C 39.1°F3.9°C
Dew Point 24.8°F-4.0°C 10.6°F-11.9°C 17.8°F-7.9°C
Winds 18.4 mph 29.6 kmh Calm Calm 3.0 mph SW4.8 kmh SW
Wind Gusts 29.9 mph48.1 kmh -- 6.0 mph9.7 kmh
Humidity 58% 18% 44%
Pressure 26.84 in908.9 mb 26.56 in899.4 mb -
Precipitation 0.22 in5.6 mm - -
Hour Temp Dew Point Humidity Winds Wind Gusts Pressure Precip Precip Rate Daily Precip Total
12:00 AM 39.9°F4.4°C 19.2°F-7.1°C 43% 1.2 mph NE1.9 kmh NE 2.3 mph3.7 kmh 26.80 in907.6 mb - 0.00 in0.0 mm 0.00 in0.0 mm
12:10 AM 39.9°F4.4°C 19.2°F-7.1°C 43% 1.2 mph NW1.9 kmh NW 2.3 mph3.7 kmh 26.80 in907.6 mb - 0.00 in0.0 mm 0.00 in0.0 mm
12:15 AM 39.6°F4.2°C 19.4°F-7.0°C 44% 3.5 mph NW5.6 kmh NW 4.6 mph7.4 kmh 26.80 in907.6 mb - 0.00 in0.0 mm 0.00 in0.0 mm
12:20 AM 39.4°F4.1°C 19.3°F-7.1°C 44% 1.2 mph NW1.9 kmh NW 3.5 mph5.6 kmh 26.80 in907.6 mb - 0.00 in0.0 mm 0.00 in0.0 mm
12:25 AM 39.2°F4.0°C 19.1°F-7.2°C 44% 1.2 mph NE1.9 kmh NE 3.5 mph5.6 kmh 26.80 in907.6 mb - 0.00 in0.0 mm 0.00 in0.0 mm
12:30 AM 39.2°F4.0°C 19.1°F-7.2°C 44% 3.5 mph NW5.6 kmh NW 4.6 mph7.4 kmh 26.80 in907.6 mb - 0.00 in0.0 mm 0.00 in0.0 mm
12:35 AM 39.6°F4.2°C 19.4°F-7.0°C 44% 3.5 mph NW5.6 kmh NW 4.6 mph7.4 kmh 26.80 in907.6 mb - 0.00 in0.0 mm 0.00 in0.0 mm
12:40 AM 39.2°F4.0°C 19.1°F-7.2°C 44% Calm Calm -- 26.80 in907.6 mb - 0.00 in0.0 mm 0.00 in0.0 mm
12:45 AM 38.5°F3.6°C 19.0°F-7.2°C 45% 2.3 mph E3.7 kmh E 3.5 mph5.6 kmh 26.80 in907.6 mb - 0.00 in0.0 mm 0.00 in0.0 mm
12:50 AM 38.5°F3.6°C 19.5°F-6.9°C 46% 1.2 mph NE1.9 kmh NE 2.3 mph3.7 kmh 26.80 in907.6 mb - 0.00 in0.0 mm 0.00 in0.0 mm
12:55 AM 38.5°F3.6°C 19.5°F-6.9°C 46% 3.5 mph E5.6 kmh E 4.6 mph7.4 kmh 26.79 in907.2 mb - 0.00 in0.0 mm 0.00 in0.0 mm
01:00 AM 38.8°F3.8°C 19.8°F-6.8°C 46% 1.2 mph NNW1.9 kmh NNW 2.3 mph3.7 kmh 26.80 in907.6 mb - 0.00 in0.0 mm 0.00 in0.0 mm
01:10 AM 38.1°F3.4°C 19.6°F-6.9°C 47% 1.2 mph NE1.9 kmh NE 2.3 mph3.7 kmh 26.80 in907.6 mb - 0.00 in0.0 mm 0.00 in0.0 mm
01:15 AM 37.8°F3.2°C 19.3°F-7.1°C 47% 2.3 mph S3.7 kmh S 4.6 mph7.4 kmh 26.80 in907.6 mb - 0.00 in0.0 mm 0.00 in0.0 mm
01:20 AM 38.3°F3.5°C 19.8°F-6.8°C 47% 1.2 mph NE1.9 kmh NE 4.6 mph7.4 kmh 26.80 in907.6 mb - 0.00 in0.0 mm 0.00 in0.0 mm
01:25 AM 38.0°F3.3°C 19.5°F-6.9°C 47% Calm Calm 1.2 mph1.9 kmh 26.80 in907.6 mb - 0.00 in0.0 mm 0.00 in0.0 mm
01:30 AM 37.6°F3.1°C 19.1°F-7.2°C 47% 1.2 mph NE1.9 kmh NE 3.5 mph5.6 kmh 26.80 in907.6 mb - 0.00 in0.0 mm 0.00 in0.0 mm
01:35 AM 37.4°F3.0°C 19.5°F-6.9°C 48% 1.2 mph N1.9 kmh N 1.2 mph1.9 kmh 26.81 in907.9 mb - 0.00 in0.0 mm 0.00 in0.0 mm
01:40 AM 37.2°F2.9°C 17.3°F-8.2°C 44% 3.5 mph E5.6 kmh E 3.5 mph5.6 kmh 26.80 in907.6 mb - 0.00 in0.0 mm 0.00 in0.0 mm
01:45 AM 37.4°F3.0°C 19.5°F-6.9°C 48% 3.5 mph 5.6 kmh 3.5 mph5.6 kmh 26.81 in907.9 mb - 0.00 in0.0 mm 0.00 in0.0 mm
01:50 AM 36.5°F2.5°C 17.2°F-8.2°C 45% 3.5 mph E5.6 kmh E 3.5 mph5.6 kmh 26.80 in907.6 mb - 0.00 in0.0 mm 0.00 in0.0 mm
01:55 AM 36.5°F2.5°C 17.7°F-7.9°C 46% 3.5 mph E5.6 kmh E 3.5 mph5.6 kmh 26.81 in907.9 mb - 0.00 in0.0 mm 0.00 in0.0 mm
02:00 AM 37.0°F2.8°C 18.1°F-7.7°C 46% 3.5 mph E5.6 kmh E 4.6 mph7.4 kmh 26.81 in907.9 mb - 0.00 in0.0 mm 0.00 in0.0 mm
02:10 AM 37.1°F2.8°C 17.7°F-7.9°C 45% Calm Calm 1.2 mph1.9 kmh 26.82 in908.2 mb - 0.00 in0.0 mm 0.00 in0.0 mm
02:15 AM 36.7°F2.6°C 17.3°F-8.2°C 45% 1.2 mph S1.9 kmh S 4.6 mph7.4 kmh 26.82 in908.2 mb - 0.00 in0.0 mm 0.00 in0.0 mm
02:20 AM 36.5°F2.5°C 17.2°F-8.2°C 45% 2.3 mph SE3.7 kmh SE 3.5 mph5.6 kmh 26.82 in908.2 mb - 0.00 in0.0 mm 0.00 in0.0 mm
02:25 AM 36.7°F2.6°C 17.8°F-7.9°C 46% 2.3 mph S3.7 kmh S 3.5 mph5.6 kmh 26.82 in908.2 mb - 0.00 in0.0 mm 0.00 in0.0 mm
02:30 AM 36.5°F2.5°C 17.7°F-7.9°C 46% Calm Calm 2.3 mph3.7 kmh 26.83 in908.6 mb - 0.00 in0.0 mm 0.00 in0.0 mm
02:35 AM 35.6°F2.0°C 16.8°F-8.4°C 46% 1.2 mph WNW1.9 kmh WNW 1.2 mph1.9 kmh 26.82 in908.2 mb - 0.00 in0.0 mm 0.00 in0.0 mm
02:40 AM 35.2°F1.8°C 17.5°F-8.1°C 48% 2.3 mph SSE3.7 kmh SSE 3.5 mph5.6 kmh 26.82 in908.2 mb - 0.00 in0.0 mm 0.00 in0.0 mm
02:45 AM 35.8°F2.1°C 18.0°F-7.8°C 48% 3.5 mph E5.6 kmh E 3.5 mph5.6 kmh 26.82 in908.2 mb - 0.00 in0.0 mm 0.00 in0.0 mm
02:50 AM 36.0°F2.2°C 17.7°F-7.9°C 47% Calm Calm -- 26.82 in908.2 mb - 0.00 in0.0 mm 0.00 in0.0 mm
02:55 AM 35.4°F1.9°C 17.7°F-7.9°C 48% Calm Calm -- 26.83 in908.6 mb - 0.00 in0.0 mm 0.00 in0.0 mm
03:00 AM 35.1°F1.7°C 17.8°F-7.9°C 49% 3.5 mph E5.6 kmh E 4.6 mph7.4 kmh 26.82 in908.2 mb - 0.00 in0.0 mm 0.00 in0.0 mm
03:10 AM 35.6°F2.0°C 17.8°F-7.9°C 48% 1.2 mph E1.9 kmh E 3.5 mph5.6 kmh 26.82 in908.2 mb - 0.00 in0.0 mm 0.00 in0.0 mm
03:15 AM 35.8°F2.1°C 18.0°F-7.8°C 48% 1.2 mph N1.9 kmh N 3.5 mph5.6 kmh 26.82 in908.2 mb - 0.00 in0.0 mm 0.00 in0.0 mm
03:20 AM 35.2°F1.8°C 17.5°F-8.1°C 48% 2.3 mph SSE3.7 kmh SSE 3.5 mph5.6 kmh 26.82 in908.2 mb - 0.00 in0.0 mm 0.00 in0.0 mm
03:25 AM 35.2°F1.8°C 18.0°F-7.8°C 49% 1.2 mph SSE1.9 kmh SSE 3.5 mph5.6 kmh 26.82 in908.2 mb - 0.00 in0.0 mm 0.00 in0.0 mm
03:30 AM 35.1°F1.7°C 17.8°F-7.9°C 49% 2.3 mph SSE3.7 kmh SSE 3.5 mph5.6 kmh 26.82 in908.2 mb - 0.00 in0.0 mm 0.00 in0.0 mm
03:35 AM 35.2°F1.8°C 18.0°F-7.8°C 49% 1.2 mph NE1.9 kmh NE 3.5 mph5.6 kmh 26.82 in908.2 mb - 0.00 in0.0 mm 0.00 in0.0 mm
03:40 AM 35.1°F1.7°C 17.8°F-7.9°C 49% Calm Calm 3.5 mph5.6 kmh 26.82 in908.2 mb - 0.00 in0.0 mm 0.00 in0.0 mm
03:45 AM 34.4°F1.3°C 17.2°F-8.2°C 49% Calm Calm 1.2 mph1.9 kmh 26.82 in908.2 mb - 0.00 in0.0 mm 0.00 in0.0 mm
03:50 AM 34.3°F1.3°C 17.1°F-8.3°C 49% 3.5 mph SSE5.6 kmh SSE 4.6 mph7.4 kmh 26.82 in908.2 mb - 0.00 in0.0 mm 0.00 in0.0 mm
03:55 AM 34.5°F1.4°C 17.3°F-8.2°C 49% 2.3 mph SSE3.7 kmh SSE 3.5 mph5.6 kmh 26.82 in908.2 mb - 0.00 in0.0 mm 0.00 in0.0 mm
04:00 AM 34.4°F1.3°C 17.1°F-8.3°C 49% 1.2 mph N1.9 kmh N 3.5 mph5.6 kmh 26.82 in908.2 mb - 0.00 in0.0 mm 0.00 in0.0 mm
04:10 AM 34.0°F1.1°C 17.3°F-8.2°C 50% 1.2 mph SSE1.9 kmh SSE 2.3 mph3.7 kmh 26.82 in908.2 mb - 0.00 in0.0 mm 0.00 in0.0 mm
04:15 AM 34.0°F1.1°C 17.3°F-8.2°C 50% 3.5 mph SSE5.6 kmh SSE 4.6 mph7.4 kmh 26.82 in908.2 mb - 0.00 in0.0 mm 0.00 in0.0 mm
04:20 AM 34.2°F1.2°C 17.4°F-8.1°C 50% 1.2 mph N1.9 kmh N 2.3 mph3.7 kmh 26.82 in908.2 mb - 0.00 in0.0 mm 0.00 in0.0 mm
04:25 AM 33.8°F1.0°C 17.1°F-8.3°C 50% 3.5 mph SE5.6 kmh SE 4.6 mph7.4 kmh 26.82 in908.2 mb - 0.00 in0.0 mm 0.00 in0.0 mm
04:30 AM 33.8°F1.0°C 17.1°F-8.3°C 50% 1.2 mph SSE1.9 kmh SSE 3.5 mph5.6 kmh 26.82 in908.2 mb - 0.00 in0.0 mm 0.00 in0.0 mm
04:35 AM 33.4°F0.8°C 17.2°F-8.2°C 51% Calm Calm 2.3 mph3.7 kmh 26.82 in908.2 mb - 0.00 in0.0 mm 0.00 in0.0 mm
04:40 AM 32.7°F0.4°C 17.0°F-8.3°C 52% Calm Calm 2.3 mph3.7 kmh 26.83 in908.6 mb - 0.00 in0.0 mm 0.00 in0.0 mm
04:45 AM 32.5°F0.3°C 16.8°F-8.4°C 52% 1.2 mph NE1.9 kmh NE 2.3 mph3.7 kmh 26.83 in908.6 mb - 0.00 in0.0 mm 0.00 in0.0 mm
04:50 AM 32.7°F0.4°C 17.0°F-8.3°C 52% Calm Calm 1.2 mph1.9 kmh 26.83 in908.6 mb - 0.00 in0.0 mm 0.00 in0.0 mm
04:55 AM 32.4°F0.2°C 17.1°F-8.3°C 53% Calm Calm 1.2 mph1.9 kmh 26.83 in908.6 mb - 0.00 in0.0 mm 0.00 in0.0 mm
05:00 AM 32.2°F0.1°C 16.9°F-8.4°C 53% 1.2 mph 1.9 kmh 2.3 mph3.7 kmh 26.84 in908.9 mb - 0.00 in0.0 mm 0.00 in0.0 mm
05:10 AM 32.7°F0.4°C 17.9°F-7.8°C 54% Calm Calm 1.2 mph1.9 kmh 26.83 in908.6 mb - 0.00 in0.0 mm 0.00 in0.0 mm
05:15 AM 32.2°F0.1°C 17.4°F-8.1°C 54% Calm Calm 1.2 mph1.9 kmh 26.83 in908.6 mb - 0.00 in0.0 mm 0.00 in0.0 mm
05:20 AM 31.8°F-0.1°C 17.1°F-8.3°C 54% Calm Calm 2.3 mph3.7 kmh 26.83 in908.6 mb - 0.00 in0.0 mm 0.00 in0.0 mm
05:25 AM 32.2°F0.1°C 17.4°F-8.1°C 54% 2.3 mph SE3.7 kmh SE 4.6 mph7.4 kmh 26.83 in908.6 mb - 0.00 in0.0 mm 0.00 in0.0 mm
05:30 AM 32.2°F0.1°C 17.4°F-8.1°C 54% 1.2 mph NE1.9 kmh NE 2.3 mph3.7 kmh 26.83 in908.6 mb - 0.00 in0.0 mm 0.00 in0.0 mm
05:35 AM 32.2°F0.1°C 17.4°F-8.1°C 54% 1.2 mph NNW1.9 kmh NNW 3.5 mph5.6 kmh 26.82 in908.2 mb - 0.00 in0.0 mm 0.00 in0.0 mm
05:40 AM 32.0°F0.0°C 17.2°F-8.2°C 54% Calm Calm 1.2 mph1.9 kmh 26.83 in908.6 mb - 0.00 in0.0 mm 0.00 in0.0 mm
05:45 AM 31.8°F-0.1°C 17.5°F-8.1°C 55% 1.2 mph N1.9 kmh N 1.2 mph1.9 kmh 26.83 in908.6 mb - 0.00 in0.0 mm 0.00 in0.0 mm
05:50 AM 31.8°F-0.1°C 17.5°F-8.1°C 55% 1.2 mph NE1.9 kmh NE 3.5 mph5.6 kmh 26.83 in908.6 mb - 0.00 in0.0 mm 0.00 in0.0 mm
05:55 AM 31.8°F-0.1°C 17.9°F-7.8°C 56% 1.2 mph NE1.9 kmh NE 3.5 mph5.6 kmh 26.82 in908.2 mb - 0.00 in0.0 mm 0.00 in0.0 mm
06:00 AM 31.8°F-0.1°C 17.9°F-7.8°C 56% Calm Calm 1.2 mph1.9 kmh 26.82 in908.2 mb - 0.00 in0.0 mm 0.00 in0.0 mm
06:10 AM 31.1°F-0.5°C 17.2°F-8.2°C 56% Calm Calm 1.2 mph1.9 kmh 26.82 in908.2 mb - 0.00 in0.0 mm 0.00 in0.0 mm
06:15 AM 31.1°F-0.5°C 17.2°F-8.2°C 56% 1.2 mph 1.9 kmh 2.3 mph3.7 kmh 26.82 in908.2 mb - 0.00 in0.0 mm 0.00 in0.0 mm
06:20 AM 31.4°F-0.3°C 17.5°F-8.1°C 56% 3.5 mph NE5.6 kmh NE 3.5 mph5.6 kmh 26.83 in908.6 mb - 0.00 in0.0 mm 0.00 in0.0 mm
06:25 AM 31.8°F-0.1°C 18.3°F-7.6°C 57% Calm Calm 3.5 mph5.6 kmh 26.83 in908.6 mb - 0.00 in0.0 mm 0.00 in0.0 mm
06:30 AM 31.5°F-0.3°C 17.6°F-8.0°C 56% 1.2 mph NW1.9 kmh NW 2.3 mph3.7 kmh 26.83 in908.6 mb - 0.00 in0.0 mm 0.00 in0.0 mm
06:35 AM 31.1°F-0.5°C 17.2°F-8.2°C 56% 2.3 mph NW3.7 kmh NW 3.5 mph5.6 kmh 26.83 in908.6 mb - 0.00 in0.0 mm 0.00 in0.0 mm
06:40 AM 31.3°F-0.4°C 17.8°F-7.9°C 57% Calm Calm 1.2 mph1.9 kmh 26.82 in908.2 mb - 0.00 in0.0 mm 0.00 in0.0 mm
06:45 AM 31.1°F-0.5°C 17.6°F-8.0°C 57% 1.2 mph NW1.9 kmh NW 3.5 mph5.6 kmh 26.83 in908.6 mb - 0.00 in0.0 mm 0.00 in0.0 mm
06:50 AM 30.7°F-0.7°C 17.3°F-8.2°C 57% 2.3 mph NW3.7 kmh NW 3.5 mph5.6 kmh 26.83 in908.6 mb - 0.00 in0.0 mm 0.00 in0.0 mm
06:55 AM 31.3°F-0.4°C 17.8°F-7.9°C 57% 2.3 mph NW3.7 kmh NW 3.5 mph5.6 kmh 26.83 in908.6 mb - 0.00 in0.0 mm 0.00 in0.0 mm
07:00 AM 31.3°F-0.4°C 17.8°F-7.9°C 57% Calm Calm 1.2 mph1.9 kmh 26.83 in908.6 mb - 0.00 in0.0 mm 0.00 in0.0 mm
07:10 AM 30.4°F-0.9°C 16.9°F-8.4°C 57% 2.3 mph WNW3.7 kmh WNW 3.5 mph5.6 kmh 26.82 in908.2 mb - 0.00 in0.0 mm 0.00 in0.0 mm
07:15 AM 30.6°F-0.8°C 17.1°F-8.3°C 57% 3.5 mph E5.6 kmh E 3.5 mph5.6 kmh 26.83 in908.6 mb - 0.00 in0.0 mm 0.00 in0.0 mm
07:20 AM 30.9°F-0.6°C 17.9°F-7.8°C 58% 2.3 mph NW3.7 kmh NW 3.5 mph5.6 kmh 26.82 in908.2 mb - 0.00 in0.0 mm 0.00 in0.0 mm
07:25 AM 30.9°F-0.6°C 17.5°F-8.1°C 57% 1.2 mph NW1.9 kmh NW 2.3 mph3.7 kmh 26.83 in908.6 mb - 0.00 in0.0 mm 0.00 in0.0 mm
07:30 AM 30.4°F-0.9°C 16.9°F-8.4°C 57% 1.2 mph 1.9 kmh 1.2 mph1.9 kmh 26.83 in908.6 mb - 0.00 in0.0 mm 0.00 in0.0 mm
07:35 AM 30.4°F-0.9°C 17.4°F-8.1°C 58% 2.3 mph E3.7 kmh E 4.6 mph7.4 kmh 26.83 in908.6 mb - 0.00 in0.0 mm 0.00 in0.0 mm
07:40 AM 30.7°F-0.7°C 17.7°F-7.9°C 58% 3.5 mph E5.6 kmh E 3.5 mph5.6 kmh 26.82 in908.2 mb - 0.00 in0.0 mm 0.00 in0.0 mm
07:45 AM 31.3°F-0.4°C 18.2°F-7.7°C 58% 1.2 mph NW1.9 kmh NW 2.3 mph3.7 kmh 26.82 in908.2 mb - 0.00 in0.0 mm 0.00 in0.0 mm
07:50 AM 30.8°F-0.7°C 17.3°F-8.2°C 57% 1.2 mph NE1.9 kmh NE 2.3 mph3.7 kmh 26.82 in908.2 mb - 0.00 in0.0 mm 0.00 in0.0 mm
07:55 AM 30.4°F-0.9°C 16.9°F-8.4°C 57% 1.2 mph S1.9 kmh S 3.5 mph5.6 kmh 26.82 in908.2 mb - 0.00 in0.0 mm 0.00 in0.0 mm
08:00 AM 30.5°F-0.8°C 17.5°F-8.1°C 58% 2.3 mph E3.7 kmh E 3.5 mph5.6 kmh 26.83 in908.6 mb - 0.00 in0.0 mm 0.00 in0.0 mm
08:10 AM 30.7°F-0.7°C 17.7°F-7.9°C 58% 3.5 mph ESE5.6 kmh ESE 3.5 mph5.6 kmh 26.82 in908.2 mb - 0.00 in0.0 mm 0.00 in0.0 mm
08:15 AM 30.9°F-0.6°C 17.9°F-7.8°C 58% 1.2 mph N1.9 kmh N 3.5 mph5.6 kmh 26.83 in908.6 mb - 0.00 in0.0 mm 0.00 in0.0 mm
08:20 AM 30.8°F-0.7°C 17.7°F-7.9°C 58% Calm Calm 1.2 mph1.9 kmh 26.83 in908.6 mb - 0.00 in0.0 mm 0.00 in0.0 mm
08:25 AM 30.2°F-1.0°C 16.8°F-8.4°C 57% 1.2 mph E1.9 kmh E 2.3 mph3.7 kmh 26.83 in908.6 mb - 0.00 in0.0 mm 0.00 in0.0 mm
08:30 AM 30.6°F-0.8°C 17.5°F-8.1°C 58% 2.3 mph E3.7 kmh E 4.6 mph7.4 kmh 26.83 in908.6 mb - 0.00 in0.0 mm 0.00 in0.0 mm
08:35 AM 31.1°F-0.5°C 18.0°F-7.8°C 58% 1.2 mph NNW1.9 kmh NNW 2.3 mph3.7 kmh 26.83 in908.6 mb - 0.00 in0.0 mm 0.00 in0.0 mm
08:40 AM 30.6°F-0.8°C 17.1°F-8.3°C 57% Calm Calm -- 26.83 in908.6 mb - 0.00 in0.0 mm 0.00 in0.0 mm
08:45 AM 30.0°F-1.1°C 17.0°F-8.3°C 58% 3.5 mph E5.6 kmh E 3.5 mph5.6 kmh 26.84 in908.9 mb - 0.00 in0.0 mm 0.00 in0.0 mm
08:50 AM 30.5°F-0.8°C 17.5°F-8.1°C 58% 3.5 mph E5.6 kmh E 4.6 mph7.4 kmh 26.84 in908.9 mb - 0.00 in0.0 mm 0.00 in0.0 mm
08:55 AM 31.3°F-0.4°C 18.2°F-7.7°C 58% 1.2 mph WNW1.9 kmh WNW 2.3 mph3.7 kmh 26.83 in908.6 mb - 0.00 in0.0 mm 0.00 in0.0 mm
09:00 AM 30.9°F-0.6°C 17.9°F-7.8°C 58% 1.2 mph E1.9 kmh E 3.5 mph5.6 kmh 26.84 in908.9 mb - 0.00 in0.0 mm 0.00 in0.0 mm
09:10 AM 30.6°F-0.8°C 17.5°F-8.1°C 58% 1.2 mph NW1.9 kmh NW 2.3 mph3.7 kmh 26.84 in908.9 mb - 0.00 in0.0 mm 0.00 in0.0 mm
09:15 AM 30.6°F-0.8°C 17.5°F-8.1°C 58% 1.2 mph SE1.9 kmh SE 2.3 mph3.7 kmh 26.84 in908.9 mb - 0.00 in0.0 mm 0.00 in0.0 mm
09:20 AM 30.9°F-0.6°C 17.9°F-7.8°C 58% 1.2 mph NW1.9 kmh NW 2.3 mph3.7 kmh 26.84 in908.9 mb - 0.00 in0.0 mm 0.00 in0.0 mm
09:25 AM 30.7°F-0.7°C 17.7°F-7.9°C 58% 1.2 mph E1.9 kmh E 3.5 mph5.6 kmh 26.83 in908.6 mb - 0.00 in0.0 mm 0.00 in0.0 mm
09:30 AM 31.3°F-0.4°C 18.2°F-7.7°C 58% Calm Calm 1.2 mph1.9 kmh 26.83 in908.6 mb - 0.00 in0.0 mm 0.00 in0.0 mm
09:35 AM 31.6°F-0.2°C 18.5°F-7.5°C 58% Calm Calm -- 26.84 in908.9 mb - 0.00 in0.0 mm 0.00 in0.0 mm
09:40 AM 34.3°F1.3°C 20.6°F-6.3°C 57% 1.2 mph WNW1.9 kmh WNW 2.3 mph3.7 kmh 26.83 in908.6 mb - 0.00 in0.0 mm 0.00 in0.0 mm
09:45 AM 39.1°F3.9°C 24.7°F-4.1°C 56% 1.2 mph NW1.9 kmh NW 2.3 mph3.7 kmh 26.83 in908.6 mb - 0.00 in0.0 mm 0.00 in0.0 mm
09:50 AM 41.5°F5.3°C 24.3°F-4.3°C 50% Calm Calm 3.5 mph5.6 kmh 26.83 in908.6 mb - 0.00 in0.0 mm 0.00 in0.0 mm
09:55 AM 43.0°F6.1°C 23.1°F-4.9°C 45% 1.2 mph SW1.9 kmh SW 1.2 mph1.9 kmh 26.83 in908.6 mb - 0.00 in0.0 mm 0.00 in0.0 mm
10:00 AM 44.0°F6.7°C 22.4°F-5.3°C 42% 1.2 mph W1.9 kmh W 1.2 mph1.9 kmh 26.83 in908.6 mb - 0.00 in0.0 mm 0.00 in0.0 mm
10:10 AM 47.3°F8.5°C 24.1°F-4.4°C 40% Calm Calm -- 26.82 in908.2 mb - 0.00 in0.0 mm 0.00 in0.0 mm
10:15 AM 47.5°F8.6°C 23.1°F-4.9°C 38% 1.2 mph NW1.9 kmh NW 1.2 mph1.9 kmh 26.82 in908.2 mb - 0.00 in0.0 mm 0.00 in0.0 mm
10:20 AM 47.8°F8.8°C 24.0°F-4.4°C 39% Calm Calm -- 26.82 in908.2 mb - 0.00 in0.0 mm 0.00 in0.0 mm
10:25 AM 49.8°F9.9°C 24.5°F-4.2°C 37% Calm Calm 1.2 mph1.9 kmh 26.82 in908.2 mb - 0.00 in0.0 mm 0.00 in0.0 mm
10:30 AM 52.3°F11.3°C 24.8°F-4.0°C 34% 1.2 mph WNW1.9 kmh WNW 1.2 mph1.9 kmh 26.82 in908.2 mb - 0.00 in0.0 mm 0.00 in0.0 mm
10:35 AM 50.4°F10.2°C 22.4°F-5.3°C 33% 1.2 mph NW1.9 kmh NW 1.2 mph1.9 kmh 26.82 in908.2 mb - 0.00 in0.0 mm 0.00 in0.0 mm
10:40 AM 50.0°F10.0°C 22.0°F-5.6°C 33% Calm Calm 1.2 mph1.9 kmh 26.82 in908.2 mb - 0.00 in0.0 mm 0.00 in0.0 mm
10:45 AM 49.7°F9.8°C 21.7°F-5.7°C 33% 1.2 mph NW1.9 kmh NW 2.3 mph3.7 kmh 26.82 in908.2 mb - 0.00 in0.0 mm 0.00 in0.0 mm
10:50 AM 50.5°F10.3°C 22.4°F-5.3°C 33% 1.2 mph NW1.9 kmh NW 2.3 mph3.7 kmh 26.82 in908.2 mb - 0.00 in0.0 mm 0.00 in0.0 mm
10:55 AM 51.8°F11.0°C 22.8°F-5.1°C 32% 1.2 mph W1.9 kmh W 2.3 mph3.7 kmh 26.82 in908.2 mb - 0.00 in0.0 mm 0.00 in0.0 mm
11:00 AM 50.4°F10.2°C 20.8°F-6.2°C 31% 1.2 mph S1.9 kmh S 3.5 mph5.6 kmh 26.80 in907.6 mb - 0.00 in0.0 mm 0.00 in0.0 mm
11:10 AM 46.8°F8.2°C 21.2°F-6.0°C 36% 3.5 mph S5.6 kmh S 4.6 mph7.4 kmh 26.80 in907.6 mb - 0.00 in0.0 mm 0.00 in0.0 mm
11:15 AM 47.1°F8.4°C 22.1°F-5.5°C 37% 2.3 mph WSW3.7 kmh WSW 3.5 mph5.6 kmh 26.80 in907.6 mb - 0.00 in0.0 mm 0.00 in0.0 mm
11:20 AM 48.9°F9.4°C 23.1°F-4.9°C 36% 1.2 mph NW1.9 kmh NW 3.5 mph5.6 kmh 26.79 in907.2 mb - 0.00 in0.0 mm 0.00 in0.0 mm
11:25 AM 47.6°F8.7°C 21.2°F-6.0°C 35% 3.5 mph SW5.6 kmh SW 4.6 mph7.4 kmh 26.79 in907.2 mb - 0.00 in0.0 mm 0.00 in0.0 mm
11:30 AM 46.4°F8.0°C 21.5°F-5.8°C 37% 1.2 mph WSW1.9 kmh WSW 3.5 mph5.6 kmh 26.79 in907.2 mb - 0.00 in0.0 mm 0.00 in0.0 mm
11:35 AM 47.1°F8.4°C 21.5°F-5.8°C 36% 1.2 mph WSW1.9 kmh WSW 3.5 mph5.6 kmh 26.79 in907.2 mb - 0.00 in0.0 mm 0.00 in0.0 mm
11:40 AM 47.8°F8.8°C 21.5°F-5.8°C 35% 2.3 mph S3.7 kmh S 3.5 mph5.6 kmh 26.78 in906.9 mb - 0.00 in0.0 mm 0.00 in0.0 mm
11:45 AM 47.1°F8.4°C 20.2°F-6.6°C 34% 2.3 mph SW3.7 kmh SW 3.5 mph5.6 kmh 26.78 in906.9 mb - 0.00 in0.0 mm 0.00 in0.0 mm
11:50 AM 47.7°F8.7°C 21.3°F-5.9°C 35% 2.3 mph W3.7 kmh W 4.6 mph7.4 kmh 26.79 in907.2 mb - 0.00 in0.0 mm 0.00 in0.0 mm
11:55 AM 47.0°F8.3°C 20.7°F-6.3°C 35% 1.2 mph S1.9 kmh S 3.5 mph5.6 kmh 26.78 in906.9 mb - 0.00 in0.0 mm 0.00 in0.0 mm
12:00 PM 47.1°F8.4°C 20.8°F-6.2°C 35% 2.3 mph SW3.7 kmh SW 4.6 mph7.4 kmh 26.78 in906.9 mb - 0.00 in0.0 mm 0.00 in0.0 mm
12:10 PM 48.9°F9.4°C 21.7°F-5.7°C 34% 1.2 mph NW1.9 kmh NW 2.3 mph3.7 kmh 26.76 in906.2 mb - 0.00 in0.0 mm 0.00 in0.0 mm
12:15 PM 51.4°F10.8°C 21.8°F-5.7°C 31% 1.2 mph NW1.9 kmh NW 3.5 mph5.6 kmh 26.77 in906.5 mb - 0.00 in0.0 mm 0.00 in0.0 mm
12:20 PM 51.1°F10.6°C 21.5°F-5.8°C 31% 2.3 mph WSW3.7 kmh WSW 5.8 mph9.3 kmh 26.77 in906.5 mb - 0.00 in0.0 mm 0.00 in0.0 mm
12:25 PM 50.2°F10.1°C 20.7°F-6.3°C 31% 2.3 mph NW3.7 kmh NW 3.5 mph5.6 kmh 26.76 in906.2 mb - 0.00 in0.0 mm 0.00 in0.0 mm
12:30 PM 48.4°F9.1°C 20.6°F-6.3°C 33% 4.6 mph S7.4 kmh S 5.8 mph9.3 kmh 26.75 in905.9 mb - 0.00 in0.0 mm 0.00 in0.0 mm
12:35 PM 47.1°F8.4°C 20.8°F-6.2°C 35% 2.3 mph W3.7 kmh W 3.5 mph5.6 kmh 26.75 in905.9 mb - 0.00 in0.0 mm 0.00 in0.0 mm
12:40 PM 48.3°F9.1°C 21.2°F-6.0°C 34% 3.5 mph SW5.6 kmh SW 3.5 mph5.6 kmh 26.75 in905.9 mb - 0.00 in0.0 mm 0.00 in0.0 mm
12:45 PM 49.3°F9.6°C 22.1°F-5.5°C 34% 1.2 mph SW1.9 kmh SW 3.5 mph5.6 kmh 26.75 in905.9 mb - 0.00 in0.0 mm 0.00 in0.0 mm
12:50 PM 50.2°F10.1°C 22.1°F-5.5°C 33% 1.2 mph NW1.9 kmh NW 3.5 mph5.6 kmh 26.75 in905.9 mb - 0.00 in0.0 mm 0.00 in0.0 mm
12:55 PM 51.6°F10.9°C 21.9°F-5.6°C 31% 3.5 mph SW5.6 kmh SW 3.5 mph5.6 kmh 26.74 in905.5 mb - 0.00 in0.0 mm 0.00 in0.0 mm
01:00 PM 49.7°F9.8°C 20.2°F-6.6°C 31% 2.3 mph SW3.7 kmh SW 3.5 mph5.6 kmh 26.74 in905.5 mb - 0.00 in0.0 mm 0.00 in0.0 mm
01:10 PM 47.7°F8.7°C 20.6°F-6.3°C 34% 3.5 mph S5.6 kmh S 5.8 mph9.3 kmh 26.74 in905.5 mb - 0.00 in0.0 mm 0.00 in0.0 mm
01:15 PM 47.7°F8.7°C 20.6°F-6.3°C 34% 3.5 mph S5.6 kmh S 5.8 mph9.3 kmh 26.73 in905.2 mb - 0.00 in0.0 mm 0.00 in0.0 mm
01:20 PM 47.5°F8.6°C 20.5°F-6.4°C 34% 3.5 mph S5.6 kmh S 5.8 mph9.3 kmh 26.73 in905.2 mb - 0.00 in0.0 mm 0.00 in0.0 mm
01:25 PM 46.6°F8.1°C 20.4°F-6.4°C 35% 4.6 mph S7.4 kmh S 8.1 mph13.0 kmh 26.73 in905.2 mb - 0.00 in0.0 mm 0.00 in0.0 mm
01:30 PM 47.3°F8.5°C 22.3°F-5.4°C 37% 3.5 mph SW5.6 kmh SW 5.8 mph9.3 kmh 26.73 in905.2 mb - 0.00 in0.0 mm 0.00 in0.0 mm
01:35 PM 48.8°F9.3°C 21.6°F-5.8°C 34% 2.3 mph S3.7 kmh S 5.8 mph9.3 kmh 26.73 in905.2 mb - 0.00 in0.0 mm 0.00 in0.0 mm
01:40 PM 47.0°F8.3°C 20.7°F-6.3°C 35% 3.5 mph SE5.6 kmh SE 5.8 mph9.3 kmh 26.72 in904.8 mb - 0.00 in0.0 mm 0.00 in0.0 mm
01:45 PM 46.6°F8.1°C 20.4°F-6.4°C 35% 4.6 mph S7.4 kmh S 5.8 mph9.3 kmh 26.71 in904.5 mb - 0.00 in0.0 mm 0.00 in0.0 mm
01:50 PM 47.3°F8.5°C 21.0°F-6.1°C 35% 3.5 mph SW5.6 kmh SW 5.8 mph9.3 kmh 26.71 in904.5 mb - 0.00 in0.0 mm 0.00 in0.0 mm
01:55 PM 47.0°F8.3°C 20.7°F-6.3°C 35% 5.8 mph S9.3 kmh S 8.1 mph13.0 kmh 26.71 in904.5 mb - 0.00 in0.0 mm 0.00 in0.0 mm
02:00 PM 44.8°F7.1°C 20.7°F-6.3°C 38% 4.6 mph S7.4 kmh S 8.1 mph13.0 kmh 26.71 in904.5 mb - 0.00 in0.0 mm 0.00 in0.0 mm
02:10 PM 44.6°F7.0°C 20.5°F-6.4°C 38% 5.8 mph S9.3 kmh S 6.9 mph11.1 kmh 26.71 in904.5 mb - 0.00 in0.0 mm 0.00 in0.0 mm
02:15 PM 43.9°F6.6°C 20.5°F-6.4°C 39% 5.8 mph SSW9.3 kmh SSW 8.1 mph13.0 kmh 26.70 in904.2 mb - 0.00 in0.0 mm 0.00 in0.0 mm
02:20 PM 43.3°F6.3°C 20.6°F-6.3°C 40% 3.5 mph SW5.6 kmh SW 3.5 mph5.6 kmh 26.70 in904.2 mb - 0.00 in0.0 mm 0.00 in0.0 mm
02:25 PM 44.1°F6.7°C 21.3°F-5.9°C 40% Calm Calm 2.3 mph3.7 kmh 26.71 in904.5 mb - 0.00 in0.0 mm 0.00 in0.0 mm
02:30 PM 41.7°F5.4°C 19.2°F-7.1°C 40% 1.2 mph NW1.9 kmh NW 2.3 mph3.7 kmh 26.70 in904.2 mb - 0.00 in0.0 mm 0.00 in0.0 mm
02:35 PM 39.6°F4.2°C 18.9°F-7.3°C 43% Calm Calm 2.3 mph3.7 kmh 26.70 in904.2 mb - 0.00 in0.0 mm 0.00 in0.0 mm
02:40 PM 38.0°F3.3°C 18.5°F-7.5°C 45% Calm Calm 2.3 mph3.7 kmh 26.70 in904.2 mb - 0.00 in0.0 mm 0.00 in0.0 mm
02:45 PM 36.9°F2.7°C 16.4°F-8.7°C 43% 1.2 mph W1.9 kmh W 2.3 mph3.7 kmh 26.70 in904.2 mb - 0.00 in0.0 mm 0.00 in0.0 mm
02:50 PM 36.7°F2.6°C 16.8°F-8.4°C 44% Calm Calm 3.5 mph5.6 kmh 26.70 in904.2 mb - 0.00 in0.0 mm 0.00 in0.0 mm
02:55 PM 36.3°F2.4°C 17.0°F-8.3°C 45% Calm Calm 1.2 mph1.9 kmh 26.70 in904.2 mb - 0.00 in0.0 mm 0.00 in0.0 mm
03:00 PM 36.0°F2.2°C 16.7°F-8.5°C 45% 1.2 mph NW1.9 kmh NW 2.3 mph3.7 kmh 26.71 in904.5 mb - 0.00 in0.0 mm 0.00 in0.0 mm
03:10 PM 35.8°F2.1°C 17.5°F-8.1°C 47% 1.2 mph NW1.9 kmh NW 2.3 mph3.7 kmh 26.70 in904.2 mb - 0.00 in0.0 mm 0.00 in0.0 mm
03:15 PM 35.6°F2.0°C 17.3°F-8.2°C 47% Calm Calm -- 26.70 in904.2 mb - 0.00 in0.0 mm 0.00 in0.0 mm
03:20 PM 35.8°F2.1°C 18.0°F-7.8°C 48% 1.2 mph WNW1.9 kmh WNW 3.5 mph5.6 kmh 26.69 in903.8 mb - 0.00 in0.0 mm 0.00 in0.0 mm
03:25 PM 36.1°F2.3°C 18.3°F-7.6°C 48% 2.3 mph W3.7 kmh W 4.6 mph7.4 kmh 26.70 in904.2 mb - 0.00 in0.0 mm 0.00 in0.0 mm
03:30 PM 35.8°F2.1°C 17.5°F-8.1°C 47% Calm Calm -- 26.70 in904.2 mb - 0.00 in0.0 mm 0.00 in0.0 mm
03:35 PM 35.9°F2.2°C 18.1°F-7.7°C 48% 1.2 mph NW1.9 kmh NW 3.5 mph5.6 kmh 26.69 in903.8 mb - 0.00 in0.0 mm 0.00 in0.0 mm
03:40 PM 35.8°F2.1°C 18.0°F-7.8°C 48% Calm Calm 1.2 mph1.9 kmh 26.69 in903.8 mb - 0.00 in0.0 mm 0.00 in0.0 mm
03:45 PM 35.4°F1.9°C 18.1°F-7.7°C 49% Calm Calm 1.2 mph1.9 kmh 26.68 in903.5 mb - 0.00 in0.0 mm 0.00 in0.0 mm
03:50 PM 34.9°F1.6°C 17.6°F-8.0°C 49% 3.5 mph SW5.6 kmh SW 3.5 mph5.6 kmh 26.68 in903.5 mb - 0.00 in0.0 mm 0.00 in0.0 mm
03:55 PM 34.7°F1.5°C 17.9°F-7.8°C 50% 1.2 mph NW1.9 kmh NW 3.5 mph5.6 kmh 26.69 in903.8 mb - 0.00 in0.0 mm 0.00 in0.0 mm
04:00 PM 35.1°F1.7°C 18.3°F-7.6°C 50% 2.3 mph SE3.7 kmh SE 3.5 mph5.6 kmh 26.68 in903.5 mb - 0.00 in0.0 mm 0.00 in0.0 mm
04:10 PM 34.7°F1.5°C 17.9°F-7.8°C 50% 2.3 mph S3.7 kmh S 3.5 mph5.6 kmh 26.68 in903.5 mb - 0.00 in0.0 mm 0.00 in0.0 mm
04:15 PM 34.5°F1.4°C 17.8°F-7.9°C 50% Calm Calm 3.5 mph5.6 kmh 26.68 in903.5 mb - 0.00 in0.0 mm 0.00 in0.0 mm
04:20 PM 34.7°F1.5°C 18.4°F-7.6°C 51% Calm Calm 3.5 mph5.6 kmh 26.68 in903.5 mb - 0.00 in0.0 mm 0.00 in0.0 mm
04:25 PM 34.4°F1.3°C 17.6°F-8.0°C 50% 2.3 mph SE3.7 kmh SE 3.5 mph5.6 kmh 26.67 in903.2 mb - 0.00 in0.0 mm 0.00 in0.0 mm
04:30 PM 34.2°F1.2°C 17.9°F-7.8°C 51% 1.2 mph NW1.9 kmh NW 1.2 mph1.9 kmh 26.68 in903.5 mb - 0.00 in0.0 mm 0.00 in0.0 mm
04:35 PM 34.0°F1.1°C 17.7°F-7.9°C 51% 3.5 mph S5.6 kmh S 4.6 mph7.4 kmh 26.68 in903.5 mb - 0.00 in0.0 mm 0.00 in0.0 mm
04:40 PM 34.2°F1.2°C 17.9°F-7.8°C 51% 1.2 mph NW1.9 kmh NW 2.3 mph3.7 kmh 26.68 in903.5 mb - 0.00 in0.0 mm 0.00 in0.0 mm
04:45 PM 34.2°F1.2°C 17.9°F-7.8°C 51% 2.3 mph SW3.7 kmh SW 3.5 mph5.6 kmh 26.68 in903.5 mb - 0.00 in0.0 mm 0.00 in0.0 mm
04:50 PM 33.8°F1.0°C 17.6°F-8.0°C 51% Calm Calm 1.2 mph1.9 kmh 26.68 in903.5 mb - 0.00 in0.0 mm 0.00 in0.0 mm
04:55 PM 33.8°F1.0°C 17.6°F-8.0°C 51% 3.5 mph NW5.6 kmh NW 4.6 mph7.4 kmh 26.67 in903.2 mb - 0.00 in0.0 mm 0.00 in0.0 mm
05:00 PM 33.8°F1.0°C 17.6°F-8.0°C 51% Calm Calm 2.3 mph3.7 kmh 26.68 in903.5 mb - 0.00 in0.0 mm 0.00 in0.0 mm
05:10 PM 33.6°F0.9°C 18.3°F-7.6°C 53% 3.5 mph W5.6 kmh W 3.5 mph5.6 kmh 26.67 in903.2 mb - 0.00 in0.0 mm 0.00 in0.0 mm
05:15 PM 33.6°F0.9°C 18.3°F-7.6°C 53% 1.2 mph SW1.9 kmh SW 1.2 mph1.9 kmh 26.67 in903.2 mb - 0.00 in0.0 mm 0.00 in0.0 mm
05:20 PM 33.6°F0.9°C 18.3°F-7.6°C 53% 3.5 mph SE5.6 kmh SE 5.8 mph9.3 kmh 26.67 in903.2 mb - 0.00 in0.0 mm 0.00 in0.0 mm
05:25 PM 33.5°F0.8°C 18.1°F-7.7°C 53% Calm Calm 2.3 mph3.7 kmh 26.67 in903.2 mb - 0.00 in0.0 mm 0.00 in0.0 mm
05:30 PM 33.3°F0.7°C 18.0°F-7.8°C 53% 3.5 mph W5.6 kmh W 4.6 mph7.4 kmh 26.67 in903.2 mb - 0.00 in0.0 mm 0.00 in0.0 mm
05:35 PM 33.6°F0.9°C 18.3°F-7.6°C 53% 3.5 mph NW5.6 kmh NW 6.9 mph11.1 kmh 26.66 in902.8 mb - 0.00 in0.0 mm 0.00 in0.0 mm
05:40 PM 34.0°F1.1°C 18.2°F-7.7°C 52% 3.5 mph S5.6 kmh S 3.5 mph5.6 kmh 26.66 in902.8 mb - 0.00 in0.0 mm 0.00 in0.0 mm
05:45 PM 34.1°F1.2°C 17.9°F-7.8°C 51% 4.6 mph WNW7.4 kmh WNW 5.8 mph9.3 kmh 26.66 in902.8 mb - 0.00 in0.0 mm 0.00 in0.0 mm
05:50 PM 34.0°F1.1°C 17.7°F-7.9°C 51% 3.5 mph WNW5.6 kmh WNW 4.6 mph7.4 kmh 26.66 in902.8 mb - 0.00 in0.0 mm 0.00 in0.0 mm
05:55 PM 33.6°F0.9°C 17.8°F-7.9°C 52% 2.3 mph NW3.7 kmh NW 4.6 mph7.4 kmh 26.65 in902.5 mb - 0.00 in0.0 mm 0.00 in0.0 mm
06:00 PM 33.6°F0.9°C 18.3°F-7.6°C 53% 3.5 mph NW5.6 kmh NW 8.1 mph13.0 kmh 26.64 in902.1 mb - 0.00 in0.0 mm 0.00 in0.0 mm
06:10 PM 34.5°F1.4°C 17.8°F-7.9°C 50% 3.5 mph NW5.6 kmh NW 5.8 mph9.3 kmh 26.63 in901.8 mb - 0.00 in0.0 mm 0.00 in0.0 mm
06:15 PM 33.6°F0.9°C 17.4°F-8.1°C 51% 5.8 mph SE9.3 kmh SE 8.1 mph13.0 kmh 26.63 in901.8 mb - 0.00 in0.0 mm 0.00 in0.0 mm
06:20 PM 33.4°F0.8°C 17.7°F-7.9°C 52% 1.2 mph S1.9 kmh S 3.5 mph5.6 kmh 26.63 in901.8 mb - 0.00 in0.0 mm 0.00 in0.0 mm
06:25 PM 33.3°F0.7°C 17.5°F-8.1°C 52% 3.5 mph NW5.6 kmh NW 5.8 mph9.3 kmh 26.64 in902.1 mb - 0.00 in0.0 mm 0.00 in0.0 mm
06:30 PM 32.9°F0.5°C 17.6°F-8.0°C 53% 5.8 mph NW9.3 kmh NW 8.1 mph13.0 kmh 26.64 in902.1 mb - 0.00 in0.0 mm 0.00 in0.0 mm
06:35 PM 34.0°F1.1°C 17.7°F-7.9°C 51% Calm Calm 2.3 mph3.7 kmh 26.63 in901.8 mb - 0.00 in0.0 mm 0.00 in0.0 mm
06:40 PM 33.6°F0.9°C 17.8°F-7.9°C 52% 8.1 mph NW13.0 kmh NW 10.4 mph16.7 kmh 26.63 in901.8 mb - 0.00 in0.0 mm 0.00 in0.0 mm
06:45 PM 34.7°F1.5°C 17.9°F-7.8°C 50% 3.5 mph NW5.6 kmh NW 3.5 mph5.6 kmh 26.63 in901.8 mb - 0.00 in0.0 mm 0.00 in0.0 mm
06:50 PM 34.0°F1.1°C 17.3°F-8.2°C 50% 1.2 mph NW1.9 kmh NW 4.6 mph7.4 kmh 26.62 in901.5 mb - 0.00 in0.0 mm 0.00 in0.0 mm
06:55 PM 33.8°F1.0°C 17.1°F-8.3°C 50% 3.5 mph W5.6 kmh W 3.5 mph5.6 kmh 26.63 in901.8 mb - 0.00 in0.0 mm 0.00 in0.0 mm
07:00 PM 35.0°F1.7°C 17.8°F-7.9°C 49% 3.5 mph S5.6 kmh S 8.1 mph13.0 kmh 26.62 in901.5 mb - 0.00 in0.0 mm 0.00 in0.0 mm
07:10 PM 33.6°F0.9°C 17.4°F-8.1°C 51% 1.2 mph NW1.9 kmh NW 3.5 mph5.6 kmh 26.63 in901.8 mb - 0.00 in0.0 mm 0.00 in0.0 mm
07:15 PM 33.3°F0.7°C 17.1°F-8.3°C 51% 3.5 mph SE5.6 kmh SE 5.8 mph9.3 kmh 26.62 in901.5 mb - 0.00 in0.0 mm 0.00 in0.0 mm
07:20 PM 34.2°F1.2°C 17.4°F-8.1°C 50% Calm Calm 1.2 mph1.9 kmh 26.62 in901.5 mb - 0.00 in0.0 mm 0.00 in0.0 mm
07:25 PM 34.3°F1.3°C 17.5°F-8.1°C 50% 4.6 mph NW7.4 kmh NW 10.4 mph16.7 kmh 26.63 in901.8 mb - 0.00 in0.0 mm 0.00 in0.0 mm
07:30 PM 34.2°F1.2°C 17.4°F-8.1°C 50% 3.5 mph W5.6 kmh W 5.8 mph9.3 kmh 26.62 in901.5 mb - 0.00 in0.0 mm 0.00 in0.0 mm
07:35 PM 33.8°F1.0°C 17.6°F-8.0°C 51% 4.6 mph S7.4 kmh S 5.8 mph9.3 kmh 26.62 in901.5 mb - 0.00 in0.0 mm 0.00 in0.0 mm
07:40 PM 34.5°F1.4°C 17.8°F-7.9°C 50% 3.5 mph WSW5.6 kmh WSW 6.9 mph11.1 kmh 26.61 in901.1 mb - 0.00 in0.0 mm 0.00 in0.0 mm
07:45 PM 34.5°F1.4°C 17.8°F-7.9°C 50% 5.8 mph SE9.3 kmh SE 6.9 mph11.1 kmh 26.60 in900.8 mb - 0.00 in0.0 mm 0.00 in0.0 mm
07:50 PM 34.9°F1.6°C 17.6°F-8.0°C 49% 3.5 mph NW5.6 kmh NW 5.8 mph9.3 kmh 26.61 in901.1 mb - 0.00 in0.0 mm 0.00 in0.0 mm
07:55 PM 34.4°F1.3°C 17.1°F-8.3°C 49% 3.5 mph SE5.6 kmh SE 3.5 mph5.6 kmh 26.61 in901.1 mb - 0.00 in0.0 mm 0.00 in0.0 mm
08:00 PM 36.2°F2.3°C 17.4°F-8.1°C 46% 3.5 mph WSW5.6 kmh WSW 5.8 mph9.3 kmh 26.60 in900.8 mb - 0.00 in0.0 mm 0.00 in0.0 mm
08:10 PM 35.1°F1.7°C 16.8°F-8.4°C 47% 2.3 mph SW3.7 kmh SW 6.9 mph11.1 kmh 26.61 in901.1 mb - 0.00 in0.0 mm 0.00 in0.0 mm
08:15 PM 35.2°F1.8°C 17.5°F-8.1°C 48% 3.5 mph S5.6 kmh S 5.8 mph9.3 kmh 26.60 in900.8 mb - 0.00 in0.0 mm 0.00 in0.0 mm
08:20 PM 36.5°F2.5°C 16.6°F-8.6°C 44% 6.9 mph W11.1 kmh W 9.2 mph14.8 kmh 26.60 in900.8 mb - 0.00 in0.0 mm 0.00 in0.0 mm
08:25 PM 37.9°F3.3°C 18.9°F-7.3°C 46% 11.5 mph SE18.5 kmh SE 15.0 mph24.1 kmh 26.59 in900.4 mb - 0.00 in0.0 mm 0.00 in0.0 mm
08:30 PM 39.8°F4.3°C 18.5°F-7.5°C 42% 3.5 mph NW5.6 kmh NW 8.1 mph13.0 kmh 26.59 in900.4 mb - 0.00 in0.0 mm 0.00 in0.0 mm
08:35 PM 38.1°F3.4°C 18.1°F-7.7°C 44% 1.2 mph SE1.9 kmh SE 3.5 mph5.6 kmh 26.60 in900.8 mb - 0.00 in0.0 mm 0.00 in0.0 mm
08:40 PM 38.1°F3.4°C 17.6°F-8.0°C 43% 5.8 mph S9.3 kmh S 8.1 mph13.0 kmh 26.59 in900.4 mb - 0.00 in0.0 mm 0.00 in0.0 mm
08:45 PM 38.9°F3.8°C 18.3°F-7.6°C 43% 1.2 mph NW1.9 kmh NW 3.5 mph5.6 kmh 26.60 in900.8 mb - 0.00 in0.0 mm 0.00 in0.0 mm
08:50 PM 38.8°F3.8°C 17.6°F-8.0°C 42% 4.6 mph S7.4 kmh S 10.4 mph16.7 kmh 26.59 in900.4 mb - 0.00 in0.0 mm 0.00 in0.0 mm
08:55 PM 39.2°F4.0°C 17.4°F-8.1°C 41% 2.3 mph SE3.7 kmh SE 3.5 mph5.6 kmh 26.60 in900.8 mb - 0.00 in0.0 mm 0.00 in0.0 mm
09:00 PM 39.0°F3.9°C 17.9°F-7.8°C 42% 8.1 mph SE13.0 kmh SE 9.2 mph14.8 kmh 26.59 in900.4 mb - 0.00 in0.0 mm 0.00 in0.0 mm
09:10 PM 45.4°F7.4°C 10.6°F-11.9°C 24% 15.0 mph SSW24.1 kmh SSW 18.4 mph29.6 kmh 26.58 in900.1 mb - 0.00 in0.0 mm 0.00 in0.0 mm
09:15 PM 49.4°F9.7°C 12.1°F-11.1°C 22% 9.2 mph S14.8 kmh S 19.6 mph31.5 kmh 26.58 in900.1 mb - 0.00 in0.0 mm 0.00 in0.0 mm
09:20 PM 51.8°F11.0°C 10.8°F-11.8°C 19% 8.1 mph W13.0 kmh W 15.0 mph24.1 kmh 26.57 in899.8 mb - 0.00 in0.0 mm 0.00 in0.0 mm
09:25 PM 53.4°F11.9°C 12.1°F-11.1°C 19% 6.9 mph SE11.1 kmh SE 17.3 mph27.8 kmh 26.57 in899.8 mb - 0.00 in0.0 mm 0.00 in0.0 mm
09:30 PM 53.1°F11.7°C 11.8°F-11.2°C 19% 9.2 mph NW14.8 kmh NW 29.9 mph48.1 kmh 26.58 in900.1 mb - 0.00 in0.0 mm 0.00 in0.0 mm
09:35 PM 53.6°F12.0°C 11.0°F-11.7°C 18% 10.4 mph WSW16.7 kmh WSW 19.6 mph31.5 kmh 26.58 in900.1 mb - 0.00 in0.0 mm 0.00 in0.0 mm
09:40 PM 53.4°F11.9°C 12.1°F-11.1°C 19% 5.8 mph SE9.3 kmh SE 12.7 mph20.4 kmh 26.58 in900.1 mb - 0.00 in0.0 mm 0.00 in0.0 mm
09:45 PM 53.2°F11.8°C 12.0°F-11.1°C 19% 12.7 mph NW20.4 kmh NW 29.9 mph48.1 kmh 26.58 in900.1 mb - 0.00 in0.0 mm 0.00 in0.0 mm
09:50 PM 53.1°F11.7°C 11.8°F-11.2°C 19% 11.5 mph SE18.5 kmh SE 12.7 mph20.4 kmh 26.57 in899.8 mb - 0.00 in0.0 mm 0.00 in0.0 mm
09:55 PM 52.9°F11.6°C 11.7°F-11.3°C 19% 4.6 mph S7.4 kmh S 8.1 mph13.0 kmh 26.58 in900.1 mb - 0.01 in0.3 mm 0.01 in0.3 mm
10:00 PM 52.4°F11.3°C 11.2°F-11.6°C 19% 17.3 mph SE27.8 kmh SE 26.5 mph42.6 kmh 26.57 in899.8 mb - 0.01 in0.3 mm 0.01 in0.3 mm
10:10 PM 52.5°F11.4°C 11.4°F-11.4°C 19% 11.5 mph W18.5 kmh W 21.9 mph35.2 kmh 26.58 in900.1 mb - 0.01 in0.3 mm 0.01 in0.3 mm
10:15 PM 52.4°F11.3°C 11.2°F-11.6°C 19% 6.9 mph NW11.1 kmh NW 17.3 mph27.8 kmh 26.59 in900.4 mb - 0.01 in0.3 mm 0.01 in0.3 mm
10:20 PM 52.3°F11.3°C 11.2°F-11.6°C 19% 5.8 mph W9.3 kmh W 18.4 mph29.6 kmh 26.58 in900.1 mb - 0.01 in0.3 mm 0.01 in0.3 mm
10:25 PM 52.2°F11.2°C 11.1°F-11.6°C 19% 9.2 mph NW14.8 kmh NW 15.0 mph24.1 kmh 26.58 in900.1 mb - 0.01 in0.3 mm 0.01 in0.3 mm
10:30 PM 52.3°F11.3°C 11.2°F-11.6°C 19% 10.4 mph W16.7 kmh W 16.1 mph25.9 kmh 26.58 in900.1 mb - 0.01 in0.3 mm 0.01 in0.3 mm
10:35 PM 52.2°F11.2°C 11.1°F-11.6°C 19% 12.7 mph NW20.4 kmh NW 20.7 mph33.3 kmh 26.58 in900.1 mb - 0.04 in1.0 mm 0.04 in1.0 mm
10:40 PM 52.3°F11.3°C 11.2°F-11.6°C 19% 6.9 mph NW11.1 kmh NW 16.1 mph25.9 kmh 26.57 in899.8 mb - 0.04 in1.0 mm 0.04 in1.0 mm
10:45 PM 52.3°F11.3°C 11.2°F-11.6°C 19% 8.1 mph W13.0 kmh W 20.7 mph33.3 kmh 26.57 in899.8 mb - 0.04 in1.0 mm 0.04 in1.0 mm
10:50 PM 52.5°F11.4°C 11.4°F-11.4°C 19% 8.1 mph NW13.0 kmh NW 20.7 mph33.3 kmh 26.58 in900.1 mb - 0.04 in1.0 mm 0.04 in1.0 mm
10:55 PM 52.7°F11.5°C 11.5°F-11.4°C 19% 12.7 mph NW20.4 kmh NW 27.6 mph44.4 kmh 26.57 in899.8 mb - 0.02 in0.5 mm 0.04 in1.0 mm
11:00 PM 52.5°F11.4°C 11.4°F-11.4°C 19% 5.8 mph W9.3 kmh W 15.0 mph24.1 kmh 26.57 in899.8 mb - 0.02 in0.5 mm 0.04 in1.0 mm
11:10 PM 52.5°F11.4°C 11.4°F-11.4°C 19% 12.7 mph W20.4 kmh W 16.1 mph25.9 kmh 26.57 in899.8 mb - 0.05 in1.3 mm 0.06 in1.5 mm
11:15 PM 52.3°F11.3°C 11.2°F-11.6°C 19% 9.2 mph W14.8 kmh W 26.5 mph42.6 kmh 26.57 in899.8 mb - 0.05 in1.3 mm 0.06 in1.5 mm
11:20 PM 52.5°F11.4°C 11.4°F-11.4°C 19% 9.2 mph SE14.8 kmh SE 16.1 mph25.9 kmh 26.57 in899.8 mb - 0.07 in1.8 mm 0.08 in2.0 mm
11:25 PM 51.8°F11.0°C 10.8°F-11.8°C 19% 10.4 mph SE16.7 kmh SE 24.2 mph38.9 kmh 26.57 in899.8 mb - 0.08 in2.0 mm 0.09 in2.3 mm
11:30 PM 52.2°F11.2°C 11.1°F-11.6°C 19% 11.5 mph WSW18.5 kmh WSW 23.0 mph37.0 kmh 26.57 in899.8 mb - 0.12 in3.0 mm 0.13 in3.3 mm
11:35 PM 51.8°F11.0°C 10.8°F-11.8°C 19% 18.4 mph NW29.6 kmh NW 28.8 mph46.3 kmh 26.58 in900.1 mb - 0.11 in2.8 mm 0.14 in3.6 mm
11:40 PM 51.6°F10.9°C 11.8°F-11.2°C 20% 18.4 mph NW29.6 kmh NW 26.5 mph42.6 kmh 26.58 in900.1 mb - 0.13 in3.3 mm 0.17 in4.3 mm
11:45 PM 51.4°F10.8°C 11.6°F-11.3°C 20% 13.8 mph NW22.2 kmh NW 23.0 mph37.0 kmh 26.59 in900.4 mb - 0.15 in3.8 mm 0.19 in4.8 mm
11:50 PM 51.3°F10.7°C 11.5°F-11.4°C 20% 15.0 mph SW24.1 kmh SW 26.5 mph42.6 kmh 26.56 in899.4 mb - 0.19 in4.8 mm 0.22 in5.6 mm
11:55 PM 50.9°F10.5°C 11.2°F-11.6°C 20% 11.5 mph NW18.5 kmh NW 19.6 mph31.5 kmh 26.57 in899.8 mb - 0.19 in4.8 mm 0.22 in5.6 mm